createdAt,value
2022-09-02T00:01:24.337Z,15.36
2022-09-02T00:03:54.913Z,15.37
2022-09-02T00:06:21.330Z,15.24
2022-09-02T00:08:47.718Z,15.11
2022-09-02T00:11:18.538Z,15.05
2022-09-02T00:13:47.497Z,14.98
2022-09-02T00:16:14.416Z,14.94
2022-09-02T00:18:45.784Z,14.82
2022-09-02T00:21:13.693Z,14.68
2022-09-02T00:23:41.266Z,14.57
2022-09-02T00:26:08.092Z,14.48
2022-09-02T00:28:34.739Z,14.35
2022-09-02T00:31:01.412Z,14.25
2022-09-02T00:33:27.791Z,14.14
2022-09-02T00:35:54.160Z,14.06
2022-09-02T00:38:20.507Z,13.97
2022-09-02T00:40:49.427Z,13.86
2022-09-02T00:43:38.466Z,13.79
2022-09-02T00:46:05.944Z,13.71
2022-09-02T00:48:33.010Z,13.68
2022-09-02T00:50:59.935Z,13.66
2022-09-02T00:53:26.623Z,13.62
2022-09-02T00:55:53.013Z,13.61
2022-09-02T00:58:27.114Z,13.53
2022-09-02T01:00:57.538Z,13.53
2022-09-02T01:03:26.949Z,13.46
2022-09-02T01:05:55.823Z,13.45
2022-09-02T01:08:25.739Z,13.42
2022-09-02T01:10:55.370Z,13.39
2022-09-02T01:13:25.493Z,13.32
2022-09-02T01:16:06.632Z,13.28
2022-09-02T01:18:36.613Z,13.28
2022-09-02T01:21:03.870Z,13.22
2022-09-02T01:23:34.684Z,13.18
2022-09-02T01:26:02.150Z,13.15
2022-09-02T01:28:28.598Z,13.11
2022-09-02T01:30:55.030Z,13.06
2022-09-02T01:33:23.615Z,12.97
2022-09-02T01:35:52.466Z,12.92
2022-09-02T01:38:20.018Z,12.90
2022-09-02T01:40:46.503Z,12.86
2022-09-02T01:43:16.169Z,12.83
2022-09-02T01:45:45.231Z,12.81
2022-09-02T01:48:13.599Z,12.78
2022-09-02T01:50:46.944Z,12.74
2022-09-02T01:53:13.664Z,12.72
2022-09-02T01:55:40.194Z,12.67
2022-09-02T01:58:06.546Z,12.68
2022-09-02T02:00:33.030Z,12.69
2022-09-02T02:02:59.439Z,12.69
2022-09-02T02:05:25.799Z,12.67
2022-09-02T02:07:52.326Z,12.67
2022-09-02T02:10:21.349Z,12.70
2022-09-02T02:12:48.131Z,12.66
2022-09-02T02:15:17.919Z,12.65
2022-09-02T02:17:44.848Z,12.63
2022-09-02T02:20:16.155Z,12.60
2022-09-02T02:22:43.833Z,12.59
2022-09-02T02:25:11.989Z,12.59
2022-09-02T02:27:38.383Z,12.53
2022-09-02T02:30:06.713Z,12.50
2022-09-02T02:32:33.123Z,12.53
2022-09-02T02:34:59.541Z,12.49
2022-09-02T02:37:25.967Z,12.55
2022-09-02T02:39:53.058Z,12.56
2022-09-02T02:42:20.112Z,12.50
2022-09-02T02:44:46.596Z,12.47
2022-09-02T02:47:12.948Z,12.47
2022-09-02T02:49:41.737Z,12.48
2022-09-02T02:52:09.291Z,12.53
2022-09-02T02:54:36.576Z,12.51
2022-09-02T02:57:04.239Z,12.44
2022-09-02T02:59:30.947Z,12.40
2022-09-02T03:01:57.632Z,12.32
2022-09-02T03:04:24.437Z,12.32
2022-09-02T03:06:51.366Z,12.32
2022-09-02T03:09:20.271Z,12.31
2022-09-02T03:11:48.280Z,12.29
2022-09-02T03:14:15.496Z,12.26
2022-09-02T03:16:41.897Z,12.25
2022-09-02T03:19:08.455Z,12.20
2022-09-02T03:21:38.837Z,12.16
2022-09-02T03:24:06.414Z,12.05
2022-09-02T03:26:32.985Z,12.02
2022-09-02T03:28:59.487Z,11.99
2022-09-02T03:31:28.275Z,11.96
2022-09-02T03:33:55.514Z,11.92
2022-09-02T03:36:24.008Z,11.94
2022-09-02T03:38:50.646Z,11.94
2022-09-02T03:41:17.058Z,11.92
2022-09-02T03:43:43.531Z,11.93
2022-09-02T03:46:10.095Z,11.95
2022-09-02T03:48:36.594Z,12.00
2022-09-02T03:51:03.780Z,12.06
2022-09-02T03:53:30.146Z,12.09
2022-09-02T03:55:56.602Z,12.13
2022-09-02T03:58:23.799Z,12.05
2022-09-02T04:00:54.801Z,12.02
2022-09-02T04:03:21.303Z,11.98
2022-09-02T04:08:32.159Z,11.93
2022-09-02T04:10:58.534Z,11.91
2022-09-02T04:13:24.881Z,11.92
2022-09-02T04:15:51.787Z,11.95
2022-09-02T04:18:18.359Z,11.96
2022-09-02T04:20:44.909Z,11.96
2022-09-02T04:23:11.426Z,11.94
2022-09-02T04:25:43.094Z,11.90
2022-09-02T04:28:10.150Z,11.87
2022-09-02T04:30:41.463Z,11.89
2022-09-02T04:33:08.017Z,11.89
2022-09-02T04:35:35.867Z,11.91
2022-09-02T04:38:02.870Z,11.97
2022-09-02T04:40:29.319Z,11.97
2022-09-02T04:42:55.746Z,12.01
2022-09-02T04:45:25.513Z,12.02
2022-09-02T04:47:54.178Z,12.04
2022-09-02T04:50:20.575Z,12.07
2022-09-02T04:52:46.943Z,12.09
2022-09-02T04:55:13.323Z,12.11
2022-09-02T04:57:39.686Z,12.15
2022-09-02T05:00:07.488Z,12.16
2022-09-02T05:02:34.087Z,12.20
2022-09-02T05:05:00.475Z,12.23
2022-09-02T05:07:27.275Z,12.24
2022-09-02T05:09:59.168Z,12.24
2022-09-02T05:12:27.993Z,12.22
2022-09-02T05:14:56.981Z,12.21
2022-09-02T05:17:23.814Z,12.26
2022-09-02T05:19:50.166Z,12.30
2022-09-02T05:22:16.692Z,12.35
2022-09-02T05:24:43.261Z,12.42
2022-09-02T05:27:09.930Z,12.50
2022-09-02T05:29:36.447Z,12.56
2022-09-02T05:32:04.348Z,12.64
2022-09-02T05:34:30.857Z,12.77
2022-09-02T05:36:57.257Z,12.84
2022-09-02T05:39:25.129Z,12.92
2022-09-02T05:41:51.515Z,13.03
2022-09-02T05:44:17.882Z,13.15
2022-09-02T05:46:48.601Z,13.27
2022-09-02T05:49:18.528Z,13.40
2022-09-02T05:51:56.841Z,13.55
2022-09-02T05:54:28.574Z,13.78
2022-09-02T05:56:57.342Z,13.91
2022-09-02T05:59:26.863Z,14.01
2022-09-02T06:01:54.270Z,14.10
2022-09-02T06:04:22.408Z,14.24
2022-09-02T06:06:49.684Z,14.41
2022-09-02T06:09:19.139Z,14.58
2022-09-02T06:11:49.213Z,14.77
2022-09-02T06:14:18.799Z,14.90
2022-09-02T06:16:46.230Z,15.09
2022-09-02T06:19:16.467Z,15.27
2022-09-02T06:21:46.529Z,15.61
2022-09-02T06:24:13.058Z,15.89
2022-09-02T06:26:40.749Z,16.18
2022-09-02T06:29:08.047Z,16.61
2022-09-02T06:31:35.304Z,16.93
2022-09-02T06:34:03.451Z,17.27
2022-09-02T06:36:30.905Z,17.68
2022-09-02T06:38:59.206Z,17.90
2022-09-02T06:41:30.217Z,18.08
2022-09-02T06:43:59.081Z,18.17
2022-09-02T06:46:30.992Z,18.38
2022-09-02T06:48:57.546Z,18.78
2022-09-02T06:51:30.817Z,19.17
2022-09-02T06:53:57.882Z,20.09
2022-09-02T06:56:24.988Z,21.57
2022-09-02T06:58:51.325Z,22.38
2022-09-02T07:01:23.003Z,22.91
2022-09-02T07:04:08.086Z,23.56
2022-09-02T07:06:39.974Z,23.74
2022-09-02T07:09:09.173Z,23.08
2022-09-02T07:11:37.159Z,22.32
2022-09-02T07:14:04.322Z,22.17
2022-09-02T07:16:35.851Z,22.46
2022-09-02T07:19:02.630Z,22.57
2022-09-02T07:21:31.051Z,22.78
2022-09-02T07:24:01.825Z,23.22
2022-09-02T07:26:28.951Z,23.09
2022-09-02T07:28:56.210Z,23.58
2022-09-02T07:31:23.462Z,23.43
2022-09-02T07:33:50.994Z,23.81
2022-09-02T07:36:21.411Z,23.66
2022-09-02T07:38:48.499Z,23.48
2022-09-02T07:41:14.837Z,23.05
2022-09-02T07:43:41.352Z,23.37
2022-09-02T07:46:08.076Z,23.40
2022-09-02T07:48:34.684Z,23.55
2022-09-02T07:51:01.978Z,23.39
2022-09-02T07:53:29.071Z,23.32
2022-09-02T07:55:55.460Z,23.17
2022-09-02T07:58:22.418Z,22.93
2022-09-02T08:00:49.595Z,23.31
2022-09-02T08:03:17.307Z,23.79
2022-09-02T08:05:47.822Z,24.23
2022-09-02T08:08:16.466Z,24.51
2022-09-02T08:10:43.004Z,24.23
2022-09-02T08:13:10.484Z,23.80
2022-09-02T08:15:37.333Z,24.11
2022-09-02T08:18:04.963Z,24.11
2022-09-02T08:20:31.401Z,23.92
2022-09-02T08:23:10.716Z,23.20
2022-09-02T08:25:40.655Z,22.92
2022-09-02T08:28:07.986Z,22.95
2022-09-02T08:30:34.570Z,23.19
2022-09-02T08:33:01.054Z,23.04
2022-09-02T08:35:27.436Z,23.41
2022-09-02T08:37:53.783Z,24.07
2022-09-02T08:40:23.552Z,24.46
2022-09-02T08:42:55.266Z,24.97
2022-09-02T08:45:28.707Z,25.48
2022-09-02T08:48:13.865Z,26.06
2022-09-02T08:50:44.833Z,25.66
2022-09-02T08:53:19.840Z,25.55
2022-09-02T08:55:54.024Z,24.86
2022-09-02T08:58:24.465Z,25.21
2022-09-02T09:01:13.665Z,26.31
2022-09-02T09:03:53.087Z,25.89
2022-09-02T09:06:47.745Z,26.20
2022-09-02T09:09:38.718Z,26.90
2022-09-02T09:12:38.573Z,26.94
2022-09-02T09:15:13.485Z,26.49
2022-09-02T09:17:47.627Z,27.07
2022-09-02T09:20:27.665Z,26.83
2022-09-02T09:22:59.619Z,26.93
2022-09-02T09:25:31.166Z,27.35
2022-09-02T09:28:01.856Z,26.87
2022-09-02T09:30:29.369Z,26.70
2022-09-02T09:32:59.898Z,25.83
2022-09-02T09:35:28.042Z,26.28
2022-09-02T09:37:55.462Z,27.20
2022-09-02T09:40:32.214Z,27.04
2022-09-02T09:43:05.520Z,27.23
2022-09-02T09:45:42.249Z,27.01
2022-09-02T09:48:19.700Z,26.25
2022-09-02T09:50:48.731Z,26.71
2022-09-02T09:53:22.279Z,27.43
2022-09-02T09:56:23.380Z,27.19
2022-09-02T09:58:50.776Z,26.93
2022-09-02T10:01:26.514Z,26.99
2022-09-02T10:04:32.294Z,26.40
2022-09-02T10:06:57.187Z,26.21
2022-09-02T10:09:35.191Z,26.02
2022-09-02T10:12:04.986Z,25.83
2022-09-02T10:14:47.475Z,26.03
2022-09-02T10:17:23.350Z,26.17
2022-09-02T10:19:57.401Z,26.66
2022-09-02T10:22:59.757Z,27.64
2022-09-02T10:25:55.827Z,29.04
2022-09-02T10:29:01.957Z,28.64
2022-09-02T10:31:38.790Z,27.63
2022-09-02T10:34:13.211Z,28.45
2022-09-02T10:37:17.256Z,28.65
2022-09-02T10:40:11.876Z,28.38
2022-09-02T10:43:00.626Z,29.94
2022-09-02T10:45:51.016Z,30.44
2022-09-02T10:48:45.675Z,31.46
2022-09-02T10:51:37.252Z,32.50
2022-09-02T10:54:25.725Z,32.11
2022-09-02T10:56:55.834Z,31.09
2022-09-02T10:59:28.272Z,31.20
2022-09-02T11:02:08.047Z,30.99
2022-09-02T11:04:42.285Z,31.58
2022-09-02T11:07:11.999Z,32.12
2022-09-02T11:09:47.430Z,32.41
2022-09-02T11:12:30.956Z,32.71
2022-09-02T11:15:17.614Z,33.19
2022-09-02T11:21:03.583Z,32.92
2022-09-02T11:24:06.630Z,33.92
2022-09-02T11:26:46.242Z,33.65
2022-09-02T11:29:22.371Z,32.86
2022-09-02T11:32:01.338Z,32.43
2022-09-02T11:34:35.287Z,30.80
2022-09-02T11:37:08.673Z,31.16
2022-09-02T11:40:17.056Z,32.28
2022-09-02T11:42:41.099Z,32.71
2022-09-02T11:45:43.813Z,34.16
2022-09-02T11:48:29.416Z,34.72
2022-09-02T11:51:04.418Z,33.96
2022-09-02T11:53:45.739Z,32.95
2022-09-02T11:56:20.245Z,31.91
2022-09-02T11:58:49.757Z,32.44
2022-09-02T12:01:16.059Z,32.78
2022-09-02T12:04:16.105Z,34.03
2022-09-02T12:06:33.983Z,33.54
2022-09-02T12:09:03.590Z,30.41
2022-09-02T12:11:45.327Z,31.29
2022-09-02T12:14:31.820Z,33.01
2022-09-02T12:17:03.688Z,33.33
2022-09-02T12:19:44.598Z,34.67
2022-09-02T12:22:17.219Z,35.17
2022-09-02T12:24:51.896Z,34.09
2022-09-02T12:27:37.649Z,32.20
2022-09-02T12:30:07.651Z,33.00
2022-09-02T12:32:45.970Z,33.64
2022-09-02T12:35:29.196Z,33.47
2022-09-02T12:37:57.927Z,33.48
2022-09-02T12:40:30.006Z,34.06
2022-09-02T12:43:02.811Z,34.22
2022-09-02T12:45:32.568Z,32.99
2022-09-02T12:48:08.234Z,31.01
2022-09-02T12:50:57.150Z,29.04
2022-09-02T12:53:23.438Z,28.01
2022-09-02T12:55:57.934Z,27.59
2022-09-02T12:58:25.007Z,27.49
2022-09-02T13:00:58.737Z,27.55
2022-09-02T13:03:49.500Z,27.11
2022-09-02T13:06:40.199Z,26.86
2022-09-02T13:09:48.240Z,26.58
2022-09-02T13:12:24.326Z,26.43
2022-09-02T13:14:58.833Z,26.44
2022-09-02T13:17:47.238Z,26.95
2022-09-02T13:20:38.184Z,27.36
2022-09-02T13:23:31.535Z,27.04
2022-09-02T13:26:32.899Z,26.57
2022-09-02T13:29:05.862Z,26.49
2022-09-02T13:31:32.497Z,26.62
2022-09-02T13:34:05.571Z,26.59
2022-09-02T13:36:38.199Z,26.69
2022-09-02T13:39:17.669Z,26.71
2022-09-02T13:41:44.667Z,26.71
2022-09-02T13:44:19.913Z,26.49
2022-09-02T13:46:52.165Z,26.32
2022-09-02T13:49:37.645Z,26.42
2022-09-02T13:52:07.791Z,26.47
2022-09-02T13:54:37.607Z,26.32
2022-09-02T13:57:07.719Z,26.26
2022-09-02T13:59:37.169Z,26.29
2022-09-02T14:02:21.852Z,26.32
2022-09-02T14:04:51.970Z,26.57
2022-09-02T14:07:31.461Z,26.72
2022-09-02T14:10:00.713Z,27.01
2022-09-02T14:12:32.431Z,27.27
2022-09-02T14:14:59.468Z,27.12
2022-09-02T14:17:27.089Z,26.93
2022-09-02T14:20:22.942Z,26.86
2022-09-02T14:22:54.940Z,26.55
2022-09-02T14:25:26.683Z,26.32
2022-09-02T14:27:56.135Z,26.20
2022-09-02T14:30:40.555Z,26.20
2022-09-02T14:33:16.695Z,26.22
2022-09-02T14:35:56.982Z,26.23
2022-09-02T14:38:25.438Z,26.39
2022-09-02T14:41:00.367Z,26.42
2022-09-02T14:43:27.755Z,26.26
2022-09-02T14:46:05.563Z,26.23
2022-09-02T14:48:37.646Z,26.23
2022-09-02T14:51:07.116Z,25.79
2022-09-02T14:53:37.357Z,25.52
2022-09-02T14:56:04.766Z,25.48
2022-09-02T14:58:31.296Z,25.57
2022-09-02T15:01:01.951Z,25.61
2022-09-02T15:03:36.474Z,25.57
2022-09-02T15:06:02.932Z,25.68
2022-09-02T15:08:29.338Z,25.65
2022-09-02T15:10:59.911Z,25.69
2022-09-02T15:13:30.325Z,25.81
2022-09-02T15:15:56.999Z,25.86
2022-09-02T15:18:23.987Z,25.96
2022-09-02T15:20:51.137Z,25.90
2022-09-02T15:23:18.228Z,25.84
2022-09-02T15:25:44.730Z,25.70
2022-09-02T15:28:11.128Z,25.49
2022-09-02T15:30:37.558Z,25.37
2022-09-02T15:33:08.223Z,25.38
2022-09-02T15:35:43.729Z,25.44
2022-09-02T15:38:10.100Z,25.58
2022-09-02T15:40:36.643Z,25.76
2022-09-02T15:43:03.062Z,25.86
2022-09-02T15:45:31.137Z,25.78
2022-09-02T15:47:58.757Z,25.65
2022-09-02T15:50:26.154Z,25.61
2022-09-02T15:52:55.784Z,25.53
2022-09-02T15:55:29.355Z,25.42
2022-09-02T15:57:56.435Z,25.25
2022-09-02T16:00:23.337Z,25.15
2022-09-02T16:02:54.462Z,25.03
2022-09-02T16:05:21.293Z,24.92
2022-09-02T16:07:48.466Z,24.93
2022-09-02T16:10:15.103Z,24.89
2022-09-02T16:12:42.057Z,24.85
2022-09-02T16:15:08.946Z,24.79
2022-09-02T16:17:35.962Z,24.74
2022-09-02T16:20:03.724Z,24.76
2022-09-02T16:22:30.088Z,24.70
2022-09-02T16:24:56.419Z,24.67
2022-09-02T16:27:42.731Z,24.62
2022-09-02T16:30:09.478Z,24.46
2022-09-02T16:32:37.597Z,24.47
2022-09-02T16:35:04.226Z,24.32
2022-09-02T16:37:30.560Z,24.29
2022-09-02T16:39:56.929Z,24.34
2022-09-02T16:42:24.870Z,24.34
2022-09-02T16:44:51.843Z,24.34
2022-09-02T16:47:18.479Z,24.33
2022-09-02T16:49:46.221Z,24.28
2022-09-02T16:52:12.590Z,24.20
2022-09-02T16:54:41.122Z,24.08
2022-09-02T16:57:07.844Z,24.04
2022-09-02T16:59:34.226Z,23.95
2022-09-02T17:02:00.751Z,23.78
2022-09-02T17:04:27.520Z,23.54
2022-09-02T17:06:55.923Z,23.54
2022-09-02T17:09:22.267Z,23.51
2022-09-02T17:11:48.670Z,23.51
2022-09-02T17:14:16.962Z,23.42
2022-09-02T17:16:48.504Z,23.25
2022-09-02T17:19:21.152Z,23.28
2022-09-02T17:21:52.485Z,23.26
2022-09-02T17:24:21.087Z,23.22
2022-09-02T17:26:50.575Z,23.15
2022-09-02T17:29:46.979Z,23.06
2022-09-02T17:32:06.406Z,23.00
2022-09-02T17:34:33.672Z,22.94
2022-09-02T17:37:00.087Z,22.76
2022-09-02T17:39:26.794Z,22.61
2022-09-02T17:41:57.313Z,22.35
2022-09-02T17:44:33.300Z,22.24
2022-09-02T17:46:59.891Z,22.15
2022-09-02T17:49:26.306Z,22.06
2022-09-02T17:51:52.798Z,21.97
2022-09-02T17:54:19.309Z,21.88
2022-09-02T17:57:24.855Z,21.79
2022-09-02T18:00:11.173Z,21.57
2022-09-02T18:02:58.846Z,21.34
2022-09-02T18:05:32.600Z,21.14
2022-09-02T18:08:28.238Z,20.91
2022-09-02T18:11:02.995Z,20.83
2022-09-02T18:13:54.432Z,20.66
2022-09-02T18:16:32.984Z,20.48
2022-09-02T18:19:13.360Z,20.24
2022-09-02T18:22:02.139Z,20.07
2022-09-02T18:25:08.612Z,19.92
2022-09-02T18:27:53.330Z,19.76
2022-09-02T18:30:25.211Z,19.65
2022-09-02T18:32:59.763Z,19.52
2022-09-02T18:35:35.678Z,19.40
2022-09-02T18:38:38.602Z,19.32
2022-09-02T18:41:23.951Z,19.19
2022-09-02T18:44:07.638Z,19.11
2022-09-02T18:46:56.363Z,19.05
2022-09-02T18:49:25.363Z,19.00
2022-09-02T18:51:57.047Z,18.84
2022-09-02T18:54:28.662Z,18.76
2022-09-02T18:56:58.687Z,18.64
2022-09-02T18:59:42.918Z,18.66
2022-09-02T19:02:25.706Z,18.59
2022-09-02T19:04:52.112Z,18.58
2022-09-02T19:07:39.051Z,18.63
2022-09-02T19:10:06.143Z,18.68
2022-09-02T19:12:36.031Z,18.62
2022-09-02T19:15:09.639Z,18.57
2022-09-02T19:17:39.591Z,18.65
2022-09-02T19:20:07.629Z,18.60
2022-09-02T19:22:40.833Z,18.57
2022-09-02T19:25:12.658Z,18.49
2022-09-02T19:27:41.962Z,18.42
2022-09-02T19:30:13.691Z,18.42
2022-09-02T19:32:44.781Z,18.41
2022-09-02T19:35:16.560Z,18.34
2022-09-02T19:37:51.143Z,18.21
2022-09-02T19:40:23.030Z,18.14
2022-09-02T19:42:51.951Z,18.09
2022-09-02T19:45:18.659Z,18.17
2022-09-02T19:48:05.944Z,18.18
2022-09-02T19:50:32.868Z,18.39
2022-09-02T19:52:59.211Z,18.52
2022-09-02T19:55:25.862Z,18.55
2022-09-02T19:57:53.164Z,18.49
2022-09-02T20:00:20.177Z,18.47
2022-09-02T20:02:46.548Z,18.40
2022-09-02T20:05:13.846Z,18.34
2022-09-02T20:07:40.714Z,18.35
2022-09-02T20:10:08.519Z,18.30
2022-09-02T20:12:36.199Z,18.31
2022-09-02T20:15:04.734Z,18.23
2022-09-02T20:17:32.144Z,18.17
2022-09-02T20:20:02.212Z,18.15
2022-09-02T20:22:32.579Z,18.15
2022-09-02T20:24:59.704Z,18.13
2022-09-02T20:27:39.878Z,18.11
2022-09-02T20:30:11.834Z,18.14
2022-09-02T20:33:19.642Z,18.16
2022-09-02T20:36:29.946Z,18.07
2022-09-02T20:39:31.901Z,18.08
2022-09-02T20:42:25.286Z,18.08
2022-09-02T20:45:25.616Z,17.99
2022-09-02T20:48:27.455Z,18.00
2022-09-02T20:51:05.433Z,18.03
2022-09-02T20:53:50.591Z,17.97
2022-09-02T20:56:58.762Z,17.95
2022-09-02T20:59:43.814Z,17.93
2022-09-02T21:02:14.669Z,17.92
2022-09-02T21:04:50.546Z,17.87
2022-09-02T21:07:42.699Z,17.86
2022-09-02T21:10:33.078Z,17.88
2022-09-02T21:13:10.155Z,17.84
2022-09-02T21:15:55.777Z,17.80
2022-09-02T21:18:37.910Z,17.79
2022-09-02T21:21:19.891Z,17.73
2022-09-02T21:23:56.409Z,17.68
2022-09-02T21:26:43.031Z,17.56
2022-09-02T21:29:19.637Z,17.51
2022-09-02T21:31:57.277Z,17.45
2022-09-02T21:34:30.818Z,17.43
2022-09-02T21:36:58.815Z,17.33
2022-09-02T21:39:28.739Z,17.30
2022-09-02T21:42:12.502Z,17.13
2022-09-02T21:44:50.641Z,17.06
2022-09-02T21:47:25.969Z,17.01
2022-09-02T21:50:05.642Z,16.91
2022-09-02T21:52:48.860Z,16.81
2022-09-02T21:55:33.370Z,16.80
2022-09-02T21:58:17.200Z,16.74
2022-09-02T22:00:50.543Z,16.79
2022-09-02T22:03:42.679Z,16.76
2022-09-02T22:06:17.794Z,16.75
2022-09-02T22:08:59.143Z,16.72
2022-09-02T22:11:34.190Z,16.69
2022-09-02T22:14:14.159Z,16.68
2022-09-02T22:16:58.844Z,16.56
2022-09-02T22:19:31.100Z,16.51
2022-09-02T22:22:11.638Z,16.47
2022-09-02T22:24:40.378Z,16.46
2022-09-02T22:27:16.477Z,16.47
2022-09-02T22:29:50.049Z,16.55
2022-09-02T22:32:20.341Z,16.58
2022-09-02T22:35:10.507Z,16.61
2022-09-02T22:37:51.838Z,16.48
2022-09-02T22:40:22.791Z,16.38
2022-09-02T22:42:53.339Z,16.34
2022-09-02T22:45:43.202Z,16.31
2022-09-02T22:48:36.523Z,16.34
2022-09-02T22:51:28.830Z,16.27
2022-09-02T22:53:55.286Z,16.27
2022-09-02T22:56:35.827Z,16.33
2022-09-02T22:59:32.926Z,16.27
2022-09-02T23:02:21.650Z,16.24
2022-09-02T23:05:44.995Z,16.18
2022-09-02T23:08:13.376Z,16.07
2022-09-02T23:10:50.620Z,16.06
2022-09-02T23:13:31.902Z,16.03
2022-09-02T23:16:28.511Z,15.93
2022-09-02T23:19:07.630Z,15.94
2022-09-02T23:21:51.083Z,15.87
2022-09-02T23:24:32.891Z,15.94
2022-09-02T23:27:16.558Z,15.95
2022-09-02T23:29:43.507Z,15.95
2022-09-02T23:32:44.177Z,15.94
2022-09-02T23:35:20.213Z,15.91
2022-09-02T23:38:02.302Z,15.91
2022-09-02T23:40:42.910Z,15.81
2022-09-02T23:43:10.006Z,15.81
2022-09-02T23:45:36.881Z,15.74
2022-09-02T23:48:21.434Z,15.71
2022-09-02T23:50:57.428Z,15.62
2022-09-02T23:53:30.717Z,15.51
2022-09-02T23:56:22.482Z,15.48
2022-09-02T23:59:00.006Z,15.51
